createdAt,value
2017-12-26T00:19:10.435Z,11.4
2017-12-26T00:34:10.315Z,12.9
2017-12-26T00:49:10.550Z,9.9
2017-12-26T01:09:10.373Z,7.8
2017-12-26T01:24:10.520Z,7.3
2017-12-26T01:39:10.353Z,6.3
2017-12-26T01:54:10.489Z,9.5
2017-12-26T02:14:10.530Z,7.2
2017-12-26T02:29:10.374Z,6.7
2017-12-26T02:44:10.413Z,7.5
2017-12-26T03:04:10.492Z,6.9
2017-12-26T03:19:10.482Z,8.2
2017-12-26T03:34:10.593Z,9.1
2017-12-26T03:49:10.554Z,8.1
2017-12-26T04:09:10.580Z,7.9
2017-12-26T04:24:10.592Z,7.7
2017-12-26T04:39:10.578Z,9.3
2017-12-26T04:54:10.451Z,10.7
2017-12-26T05:14:10.466Z,8.6
2017-12-26T05:29:10.471Z,8.4
2017-12-26T05:44:10.482Z,7.9
2017-12-26T06:04:10.563Z,6.8
2017-12-26T06:19:10.743Z,5.7
2017-12-26T06:34:10.660Z,7.7
2017-12-26T06:49:10.655Z,6.1
2017-12-26T07:09:10.519Z,5.6
2017-12-26T07:24:10.541Z,6.7
2017-12-26T07:39:10.592Z,5.5
2017-12-26T07:59:10.637Z,6.5
2017-12-26T08:14:10.597Z,5.6
2017-12-26T08:29:10.651Z,4.7
2017-12-26T09:19:12.937Z,6.9
2017-12-26T10:09:11.211Z,11.7
2017-12-26T10:24:11.201Z,10.7
2017-12-26T10:39:11.172Z,7.5
2017-12-26T10:59:11.443Z,6.9
2017-12-26T11:14:11.247Z,8.5
2017-12-26T11:29:11.226Z,6.6
2017-12-26T11:49:11.387Z,6.5
2017-12-26T12:04:11.203Z,7.7
2017-12-26T12:19:11.352Z,8.4
2017-12-26T12:34:11.319Z,8.1
2017-12-26T12:54:11.345Z,8
2017-12-26T13:09:11.331Z,8.6
2017-12-26T13:24:11.228Z,9.5
2017-12-26T13:44:11.323Z,10.3
2017-12-26T13:59:11.329Z,12.3
2017-12-26T14:14:12.275Z,10.3
2017-12-26T14:29:11.229Z,10
2017-12-26T14:49:11.430Z,10.4
2017-12-26T15:04:11.396Z,8.5
2017-12-26T15:19:11.418Z,10.6
2017-12-26T15:39:11.454Z,9.6
2017-12-26T15:54:11.502Z,12.6
2017-12-26T16:09:11.362Z,14.5
2017-12-26T16:24:11.517Z,13.1
2017-12-26T16:44:11.506Z,17.3
2017-12-26T16:59:11.303Z,15.6
2017-12-26T17:14:11.470Z,18.8
2017-12-26T17:34:11.540Z,18
2017-12-26T17:49:11.464Z,17.1
2017-12-26T18:04:11.500Z,17.4
2017-12-26T18:19:11.595Z,15.4
2017-12-26T18:39:11.784Z,20.2
2017-12-26T18:54:11.438Z,17.5
2017-12-26T19:09:11.477Z,17.8
2017-12-26T19:29:11.412Z,17
2017-12-26T19:44:11.578Z,18.1
2017-12-26T19:59:11.628Z,19
2017-12-26T20:14:11.550Z,15.4
2017-12-26T20:34:11.621Z,15.5
2017-12-26T20:49:11.760Z,15.8
2017-12-26T21:04:11.534Z,15.7
2017-12-26T21:19:11.860Z,14.2
2017-12-26T21:39:15.744Z,15.4
2017-12-26T22:09:11.500Z,12.4
2017-12-26T22:29:11.618Z,13.7
2017-12-26T22:44:11.536Z,16.7
2017-12-26T22:59:11.530Z,17.4
2017-12-26T23:14:11.566Z,16.9
2017-12-26T23:49:12.223Z,16.7
